Time;durP1;ratioP1;P1;durP2;ratioP2;P2;SDS_P1;SDS_P2;PMS_P1;PMS_P2;Temp;Humidity;BMP_temperature;BMP_pressure;BME280_temperature;BME280_humidity;BME280_pressure;Samples;Min_cycle;Max_cycle;Signal;HPM_P1;HPM_P2
2022/05/28 00:02:02;;;;;;;0.80;0.55;;;20.50;60.20;;;;;;4973656;28;20055;-14
2022/05/28 00:04:28;;;;;;;0.50;0.40;;;20.50;60.30;;;;;;4979363;28;20056;-14
2022/05/28 00:06:53;;;;;;;1.90;0.68;;;20.40;60.10;;;;;;4964422;28;20134;-14
2022/05/28 00:09:19;;;;;;;1.60;0.60;;;20.40;60.30;;;;;;4987078;28;20105;-14
2022/05/28 00:11:45;;;;;;;0.70;0.57;;;20.40;60.30;;;;;;4975284;28;20456;-13
2022/05/28 00:14:10;;;;;;;0.82;0.60;;;20.40;60.10;;;;;;4973551;28;20047;-13
2022/05/28 00:16:36;;;;;;;0.80;0.45;;;20.40;60.10;;;;;;4974442;28;20590;-14
2022/05/28 00:19:03;;;;;;;1.55;0.80;;;20.40;60.30;;;;;;4974191;28;20049;-13
2022/05/28 00:21:29;;;;;;;0.60;0.60;;;20.40;61.10;;;;;;4975187;28;20102;-14
2022/05/28 00:23:55;;;;;;;1.33;0.73;;;20.40;60.20;;;;;;4973832;28;20055;-13
2022/05/28 00:26:20;;;;;;;0.80;0.60;;;20.40;60.30;;;;;;4973570;28;20416;-14
2022/05/28 00:28:46;;;;;;;0.90;0.80;;;20.40;60.30;;;;;;4975398;28;20042;-12
2022/05/28 00:31:12;;;;;;;1.23;0.50;;;20.40;60.30;;;;;;4974069;28;20573;-15
2022/05/28 00:33:37;;;;;;;0.63;0.57;;;20.40;60.30;;;;;;4973245;28;20050;-14
2022/05/28 00:36:04;;;;;;;0.60;0.50;;;20.40;60.10;;;;;;4974406;28;20046;-13
2022/05/28 00:38:30;;;;;;;0.85;0.85;;;20.40;60.30;;;;;;4974660;28;20182;-13
2022/05/28 00:40:57;;;;;;;1.05;0.60;;;20.40;60.20;;;;;;4973422;28;20125;-13
2022/05/28 00:43:23;;;;;;;0.73;0.50;;;20.40;60.30;;;;;;4974845;28;20458;-14
2022/05/28 00:45:50;;;;;;;1.05;0.80;;;20.40;60.30;;;;;;4975037;28;20038;-13
2022/05/28 00:48:23;;;;;;;0.90;0.50;;;20.40;60.10;;;;;;4969896;28;20047;-13
2022/05/28 00:50:48;;;;;;;0.98;0.52;;;20.40;60.20;;;;;;4955024;28;20373;-13
2022/05/28 00:53:14;;;;;;;1.17;0.80;;;20.40;60.20;;;;;;4972748;28;20744;-14
2022/05/28 00:55:40;;;;;;;0.60;0.55;;;20.40;60.30;;;;;;4972612;28;20126;-14
2022/05/28 00:58:09;;;;;;;0.75;0.60;;;20.40;60.30;;;;;;4969475;28;20496;-14
2022/05/28 01:00:35;;;;;;;0.85;0.50;;;20.30;60.20;;;;;;4970178;28;20501;-14
2022/05/28 01:03:19;;;;;;;0.85;0.60;;;20.30;60.30;;;;;;4963018;28;20137;-13
2022/05/28 01:06:13;;;;;;;1.23;0.68;;;20.40;60.40;;;;;;4966733;28;20051;-14
2022/05/28 01:08:48;;;;;;;0.50;0.50;;;20.30;60.30;;;;;;4987071;28;20047;-13
2022/05/28 01:11:45;;;;;;;0.80;0.75;;;20.40;60.30;;;;;;4972897;28;20053;-13
2022/05/28 01:14:21;;;;;;;0.65;0.50;;;20.40;60.20;;;;;;4967991;28;20577;-13
2022/05/28 01:16:49;;;;;;;0.77;0.50;;;20.30;60.10;;;;;;4975275;28;20054;-14
2022/05/28 01:19:40;;;;;;;0.85;0.50;;;20.30;60.10;;;;;;4987867;28;20047;-14
2022/05/28 01:22:24;;;;;;;1.35;0.50;;;20.30;60.20;;;;;;4965184;28;20533;-13
2022/05/28 01:25:00;;;;;;;0.80;0.47;;;20.30;60.30;;;;;;4970677;28;20059;-13
2022/05/28 01:27:29;;;;;;;0.80;0.50;;;20.30;60.20;;;;;;4956017;28;20050;-14
2022/05/28 01:29:56;;;;;;;1.00;0.77;;;20.30;60.10;;;;;;4971654;28;20113;-14
2022/05/28 01:32:23;;;;;;;0.70;0.70;;;20.30;60.10;;;;;;4976083;28;20049;-13
2022/05/28 01:34:49;;;;;;;0.60;0.60;;;20.30;60.10;;;;;;4975690;28;20181;-13
2022/05/28 01:37:15;;;;;;;0.93;0.75;;;20.30;60.10;;;;;;4958829;28;20070;-13
2022/05/28 01:39:41;;;;;;;0.82;0.60;;;20.30;60.00;;;;;;4977094;28;20042;-14
2022/05/28 01:42:07;;;;;;;0.65;0.50;;;20.30;59.90;;;;;;4975517;28;20054;-13
2022/05/28 01:44:33;;;;;;;1.35;0.65;;;20.30;60.30;;;;;;4959600;28;20042;-13
2022/05/28 01:46:59;;;;;;;0.88;0.68;;;20.30;60.10;;;;;;4959558;28;20054;-14
2022/05/28 01:49:24;;;;;;;0.90;0.70;;;20.30;60.10;;;;;;4977600;28;20062;-13
2022/05/28 01:51:52;;;;;;;0.63;0.52;;;20.30;60.10;;;;;;4976072;28;20038;-13
2022/05/28 01:54:19;;;;;;;0.93;0.50;;;20.30;60.30;;;;;;4974931;28;20047;-13
2022/05/28 01:56:47;;;;;;;0.57;0.50;;;20.20;60.20;;;;;;4959997;28;20047;-13
2022/05/28 01:59:14;;;;;;;0.65;0.50;;;20.20;60.10;;;;;;4976793;28;20042;-13
2022/05/28 02:01:40;;;;;;;0.93;0.47;;;20.20;60.50;;;;;;4975248;28;20170;-13
2022/05/28 02:04:05;;;;;;;1.00;0.88;;;20.20;60.20;;;;;;4959342;28;20078;-14
2022/05/28 02:06:32;;;;;;;1.02;0.73;;;20.20;60.50;;;;;;4976354;28;20504;-14
2022/05/28 02:08:58;;;;;;;0.40;0.40;;;20.20;60.60;;;;;;4976341;28;20460;-13
2022/05/28 02:11:28;;;;;;;0.52;0.45;;;20.20;60.40;;;;;;4975716;28;20046;-14
2022/05/28 02:14:16;;;;;;;0.50;0.45;;;20.20;60.40;;;;;;4959716;28;20042;-13
2022/05/28 02:17:03;;;;;;;0.77;0.57;;;20.10;60.40;;;;;;4991393;28;20042;-14
2022/05/28 02:19:38;;;;;;;1.40;0.65;;;20.10;60.20;;;;;;4974466;28;20043;-12
2022/05/28 02:22:45;;;;;;;1.13;0.70;;;20.10;60.40;;;;;;4959072;28;20121;-13
2022/05/28 02:25:15;;;;;;;0.47;0.40;;;20.10;60.30;;;;;;4968532;28;20047;-13
2022/05/28 02:27:41;;;;;;;1.30;0.85;;;20.10;60.50;;;;;;4947721;28;20051;-13
2022/05/28 02:30:09;;;;;;;0.40;0.40;;;20.10;60.30;;;;;;4958929;28;20038;-14
2022/05/28 02:32:34;;;;;;;0.77;0.70;;;20.10;60.80;;;;;;4969728;28;20057;-13
2022/05/28 02:35:00;;;;;;;0.73;0.50;;;20.10;60.40;;;;;;4975251;28;20038;-14
2022/05/28 02:37:26;;;;;;;0.80;0.50;;;20.00;60.50;;;;;;4975782;28;20046;-14
2022/05/28 02:39:52;;;;;;;1.52;0.60;;;20.10;60.60;;;;;;4976526;28;20047;-14
2022/05/28 02:42:18;;;;;;;0.88;0.60;;;20.10;60.30;;;;;;4975279;28;20039;-15
2022/05/28 02:44:43;;;;;;;0.80;0.63;;;20.00;60.40;;;;;;4976069;28;20062;-13
2022/05/28 02:47:09;;;;;;;0.70;0.57;;;20.00;61.30;;;;;;4976007;28;20042;-14
2022/05/28 02:49:34;;;;;;;0.85;0.70;;;20.00;60.30;;;;;;4975993;28;20051;-14
2022/05/28 02:52:04;;;;;;;0.80;0.70;;;20.00;60.40;;;;;;4975989;28;20046;-14
2022/05/28 02:54:30;;;;;;;1.70;0.73;;;20.00;60.50;;;;;;4975128;28;20057;-14
2022/05/28 02:56:55;;;;;;;0.98;0.68;;;20.00;60.40;;;;;;4976497;28;20051;-14
2022/05/28 02:59:21;;;;;;;0.95;0.77;;;20.00;60.60;;;;;;4975322;28;20519;-15
2022/05/28 03:01:47;;;;;;;0.80;0.55;;;20.00;60.40;;;;;;4976563;28;20054;-14
2022/05/28 03:04:12;;;;;;;1.13;0.50;;;20.00;60.50;;;;;;4975369;28;20059;-15
2022/05/28 03:06:38;;;;;;;0.65;0.50;;;20.00;60.70;;;;;;4976542;28;20039;-14
2022/05/28 03:09:04;;;;;;;1.10;0.73;;;20.00;60.40;;;;;;4975626;28;20050;-14
2022/05/28 03:11:30;;;;;;;1.40;0.82;;;19.90;60.50;;;;;;4975768;28;20058;-16
2022/05/28 03:13:56;;;;;;;0.75;0.50;;;20.00;60.40;;;;;;4976562;28;20046;-15
2022/05/28 03:16:21;;;;;;;1.23;0.50;;;20.00;60.40;;;;;;4975891;28;20051;-14
2022/05/28 03:18:47;;;;;;;1.00;0.73;;;20.00;60.50;;;;;;4975881;28;20567;-14
2022/05/28 03:21:12;;;;;;;0.70;0.70;;;20.00;60.40;;;;;;4975774;28;20047;-14
2022/05/28 03:23:38;;;;;;;1.35;0.70;;;20.00;60.40;;;;;;4976148;28;20050;-13
2022/05/28 03:26:12;;;;;;;0.98;0.88;;;19.90;60.40;;;;;;4974904;28;20054;-14
2022/05/28 03:28:37;;;;;;;0.90;0.70;;;19.90;60.20;;;;;;4975737;28;20116;-14
2022/05/28 03:31:03;;;;;;;0.95;0.60;;;19.90;60.30;;;;;;4975807;28;20137;-14
2022/05/28 03:33:28;;;;;;;0.63;0.60;;;20.00;60.10;;;;;;4975651;28;20045;-14
2022/05/28 03:35:55;;;;;;;0.60;0.60;;;19.90;60.40;;;;;;4976108;28;20055;-14
2022/05/28 03:38:20;;;;;;;0.98;0.50;;;19.90;60.10;;;;;;4975545;28;20102;-15
2022/05/28 03:40:46;;;;;;;1.52;0.70;;;20.00;60.20;;;;;;4976105;28;20614;-14
2022/05/28 03:43:12;;;;;;;0.68;0.68;;;19.90;60.50;;;;;;4974987;28;20055;-15
2022/05/28 03:45:37;;;;;;;0.82;0.82;;;19.90;60.10;;;;;;4975505;28;20050;-14
2022/05/28 03:48:04;;;;;;;0.60;0.60;;;19.90;60.10;;;;;;4974369;28;20129;-15
2022/05/28 03:50:29;;;;;;;0.80;0.55;;;19.90;60.50;;;;;;4977952;28;20051;-15
2022/05/28 03:52:55;;;;;;;0.93;0.65;;;19.90;60.60;;;;;;4978989;28;20054;-14
2022/05/28 03:55:20;;;;;;;1.05;0.85;;;19.90;60.70;;;;;;4978185;28;20073;-15
2022/05/28 03:57:47;;;;;;;0.60;0.55;;;19.90;60.50;;;;;;4978970;28;20137;-14
2022/05/28 04:00:14;;;;;;;1.70;0.60;;;19.90;60.50;;;;;;4978990;28;20110;-15
2022/05/28 04:02:39;;;;;;;0.77;0.55;;;19.80;60.50;;;;;;4962335;28;20039;-14
2022/05/28 04:05:05;;;;;;;0.82;0.80;;;19.90;60.00;;;;;;4959812;28;20524;-15
2022/05/28 04:07:31;;;;;;;1.15;0.70;;;19.80;60.30;;;;;;4960126;28;20098;-14
2022/05/28 04:09:56;;;;;;;1.25;0.93;;;19.90;61.40;;;;;;4960173;28;20043;-15
2022/05/28 04:12:22;;;;;;;1.10;0.50;;;19.80;60.50;;;;;;4959525;28;20043;-14
2022/05/28 04:14:49;;;;;;;0.75;0.60;;;19.80;60.40;;;;;;4960261;28;20043;-15
2022/05/28 04:17:14;;;;;;;1.77;0.77;;;19.90;60.50;;;;;;4959379;28;20043;-15
2022/05/28 04:19:40;;;;;;;0.52;0.50;;;19.80;60.50;;;;;;4974665;28;20043;-14
2022/05/28 04:22:05;;;;;;;1.15;0.75;;;19.80;60.50;;;;;;4978356;28;20054;-15
2022/05/28 04:24:32;;;;;;;0.98;0.77;;;19.80;60.20;;;;;;4978774;28;20058;-15
2022/05/28 04:26:57;;;;;;;0.80;0.55;;;19.90;60.00;;;;;;4973825;28;20138;-15
2022/05/28 04:29:23;;;;;;;0.70;0.68;;;19.90;60.40;;;;;;4976598;28;20121;-14
2022/05/28 04:31:48;;;;;;;1.20;1.08;;;19.80;60.20;;;;;;4979147;28;20043;-15
2022/05/28 04:34:14;;;;;;;0.80;0.80;;;19.90;60.00;;;;;;4978584;28;20054;-14
2022/05/28 04:36:40;;;;;;;1.52;0.70;;;19.80;60.10;;;;;;4962912;28;20493;-13
2022/05/28 04:39:05;;;;;;;1.10;0.60;;;19.90;60.40;;;;;;4958869;28;20047;-15
2022/05/28 04:41:31;;;;;;;0.82;0.70;;;19.80;60.10;;;;;;4959471;28;20412;-15
2022/05/28 04:43:56;;;;;;;0.60;0.57;;;19.80;60.50;;;;;;4970785;28;20102;-14
2022/05/28 04:46:22;;;;;;;0.82;0.68;;;19.80;60.60;;;;;;4978136;28;20042;-14
2022/05/28 04:48:48;;;;;;;0.60;0.60;;;19.80;60.30;;;;;;4977675;28;20566;-14
2022/05/28 04:51:13;;;;;;;0.45;0.35;;;19.80;60.50;;;;;;4977890;28;20059;-14
2022/05/28 04:53:39;;;;;;;0.75;0.50;;;19.80;60.10;;;;;;4977371;28;20062;-14
2022/05/28 04:56:04;;;;;;;0.77;0.57;;;19.80;60.30;;;;;;4976367;28;20043;-14
2022/05/28 04:58:30;;;;;;;0.60;0.60;;;19.80;60.40;;;;;;4978013;28;20390;-14
2022/05/28 05:00:56;;;;;;;1.75;0.60;;;19.90;60.30;;;;;;4975323;28;20047;-14
2022/05/28 05:03:21;;;;;;;0.82;0.70;;;20.00;59.90;;;;;;4977063;28;20109;-13
2022/05/28 05:05:47;;;;;;;0.30;0.30;;;19.70;59.30;;;;;;4978018;28;20065;-16
2022/05/28 05:08:13;;;;;;;0.80;0.80;;;19.60;58.50;;;;;;4978293;28;20037;-15
2022/05/28 05:10:38;;;;;;;0.57;0.50;;;19.40;58.60;;;;;;4975028;28;20050;-15
2022/05/28 05:13:04;;;;;;;0.40;0.40;;;19.30;58.40;;;;;;4973300;28;20031;-16
2022/05/28 05:15:29;;;;;;;0.30;0.30;;;19.20;58.10;;;;;;4974643;28;20085;-14
2022/05/28 05:17:55;;;;;;;0.90;0.40;;;19.20;58.00;;;;;;4976243;28;20546;-15
2022/05/28 05:20:21;;;;;;;0.30;0.30;;;19.10;57.90;;;;;;4974514;28;20138;-14
2022/05/28 05:22:46;;;;;;;0.40;0.40;;;19.00;57.90;;;;;;4975741;28;20055;-14
2022/05/28 05:25:12;;;;;;;0.30;0.30;;;18.90;57.90;;;;;;4975162;28;20381;-14
2022/05/28 05:27:38;;;;;;;0.35;0.35;;;18.90;58.10;;;;;;4976753;28;20034;-15
2022/05/28 05:30:04;;;;;;;0.30;0.30;;;18.80;58.10;;;;;;4975314;28;20042;-16
2022/05/28 05:32:30;;;;;;;0.30;0.30;;;18.70;58.20;;;;;;4976168;28;20034;-14
2022/05/28 05:34:56;;;;;;;0.20;0.20;;;18.70;58.30;;;;;;4974787;28;20070;-14
2022/05/28 05:37:21;;;;;;;0.70;0.25;;;18.60;58.30;;;;;;4975830;28;20054;-15
2022/05/28 05:39:47;;;;;;;0.38;0.38;;;18.60;58.40;;;;;;4974076;28;20050;-15
2022/05/28 05:42:12;;;;;;;0.35;0.35;;;18.50;58.60;;;;;;4975119;28;20034;-14
2022/05/28 05:44:38;;;;;;;0.40;0.40;;;18.60;58.60;;;;;;4976228;28;20070;-14
2022/05/28 05:47:05;;;;;;;0.50;0.50;;;18.50;58.60;;;;;;4974711;28;20039;-13
2022/05/28 05:49:30;;;;;;;0.40;0.40;;;18.50;58.80;;;;;;4976361;28;20404;-15
2022/05/28 05:51:56;;;;;;;0.80;0.80;;;18.40;58.90;;;;;;4975999;28;20065;-14
2022/05/28 05:54:24;;;;;;;0.50;0.50;;;18.40;59.30;;;;;;4974490;28;20061;-14
2022/05/28 05:56:49;;;;;;;0.95;0.80;;;18.40;59.30;;;;;;4971425;28;20055;-16
2022/05/28 05:59:15;;;;;;;0.60;0.60;;;18.30;59.50;;;;;;4975293;28;20053;-15
2022/05/28 06:01:41;;;;;;;0.80;0.80;;;18.30;59.80;;;;;;4973669;28;20043;-15
2022/05/28 06:04:06;;;;;;;1.17;0.65;;;18.20;61.00;;;;;;4975537;28;20083;-15
2022/05/28 06:06:32;;;;;;;0.73;0.73;;;18.30;60.10;;;;;;4975873;28;20054;-16
2022/05/28 06:08:58;;;;;;;0.80;0.60;;;18.20;60.60;;;;;;4973859;28;20047;-14
2022/05/28 06:11:24;;;;;;;0.70;0.70;;;18.20;60.70;;;;;;4975293;28;20046;-13
2022/05/28 06:13:49;;;;;;;0.90;0.90;;;18.20;61.00;;;;;;4974535;28;20054;-15
2022/05/28 06:16:15;;;;;;;0.75;0.65;;;18.20;61.10;;;;;;4974826;28;20114;-14
2022/05/28 06:18:41;;;;;;;0.70;0.70;;;18.20;61.30;;;;;;4987338;28;20074;-13
2022/05/28 06:21:06;;;;;;;0.70;0.70;;;18.10;61.40;;;;;;4972982;28;20066;-13
2022/05/28 06:23:32;;;;;;;1.13;0.70;;;18.10;61.70;;;;;;4969979;28;20050;-13
2022/05/28 06:25:57;;;;;;;1.40;0.90;;;18.20;61.90;;;;;;4972720;28;20047;-12
2022/05/28 06:28:23;;;;;;;0.80;0.80;;;18.20;62.00;;;;;;4973184;28;20050;-13
2022/05/28 06:30:51;;;;;;;1.00;0.90;;;18.20;62.10;;;;;;4974896;28;20043;-14
2022/05/28 06:33:17;;;;;;;1.60;1.10;;;18.20;62.20;;;;;;4968554;28;20058;-13
2022/05/28 06:35:42;;;;;;;2.00;0.82;;;18.10;62.40;;;;;;4972161;28;20042;-13
2022/05/28 06:38:08;;;;;;;1.00;0.80;;;18.20;62.30;;;;;;4975177;28;20049;-13
2022/05/28 06:40:35;;;;;;;1.33;1.10;;;18.20;62.80;;;;;;4973653;28;20030;-13
2022/05/28 06:43:00;;;;;;;3.08;1.00;;;18.10;63.20;;;;;;4969641;28;20043;-13
2022/05/28 06:45:26;;;;;;;2.13;1.10;;;18.10;63.40;;;;;;4973997;28;20050;-13
2022/05/28 06:47:52;;;;;;;1.85;1.38;;;18.20;63.50;;;;;;4975882;28;20077;-12
2022/05/28 06:53:02;;;;;;;1.60;1.10;;;18.20;63.90;;;;;;4972816;28;20069;-14
2022/05/28 06:55:28;;;;;;;2.65;1.30;;;18.10;64.10;;;;;;4975929;28;20043;-13
2022/05/28 06:57:54;;;;;;;4.22;1.20;;;18.20;64.40;;;;;;4973046;28;20039;-13
2022/05/28 07:00:19;;;;;;;2.20;1.02;;;18.10;64.60;;;;;;4968631;28;20093;-14
2022/05/28 07:02:45;;;;;;;2.95;1.33;;;18.10;64.80;;;;;;4977893;28;20053;-13
2022/05/28 07:05:11;;;;;;;3.22;1.48;;;18.10;65.00;;;;;;4974800;28;20039;-12
2022/05/28 07:07:37;;;;;;;1.75;1.10;;;18.20;64.90;;;;;;4974971;28;20489;-12
2022/05/28 07:10:03;;;;;;;3.90;1.30;;;18.20;65.10;;;;;;4972273;28;20380;-13
2022/05/28 07:12:29;;;;;;;2.17;1.40;;;18.20;65.10;;;;;;4972323;28;20062;-13
2022/05/28 07:14:55;;;;;;;4.18;1.50;;;18.20;65.30;;;;;;4972333;28;20509;-13
2022/05/28 07:17:22;;;;;;;5.32;1.50;;;18.30;65.10;;;;;;4975151;28;20045;-14
2022/05/28 07:19:48;;;;;;;2.75;1.48;;;18.40;65.00;;;;;;4628803;28;10000347;-13
2022/05/28 07:22:14;;;;;;;3.42;1.15;;;18.50;64.20;;;;;;4978361;28;20054;-13
2022/05/28 07:24:40;;;;;;;2.20;1.13;;;18.60;63.50;;;;;;4974596;28;20496;-15
2022/05/28 07:27:05;;;;;;;2.58;1.00;;;18.70;63.00;;;;;;4975940;28;20051;-14
2022/05/28 07:29:31;;;;;;;1.88;0.90;;;18.80;62.70;;;;;;4976662;28;20582;-13
2022/05/28 07:31:56;;;;;;;1.88;1.10;;;18.80;62.50;;;;;;4975433;28;20046;-13
2022/05/28 07:34:22;;;;;;;1.25;0.70;;;18.90;62.20;;;;;;4975041;28;20054;-14
2022/05/28 07:36:48;;;;;;;1.85;0.82;;;18.90;62.00;;;;;;4972398;28;20130;-16
2022/05/28 07:39:14;;;;;;;1.38;1.02;;;19.00;61.90;;;;;;4974718;28;20050;-15
2022/05/28 07:41:40;;;;;;;1.75;0.93;;;19.10;61.60;;;;;;4969059;28;20113;-13
2022/05/28 07:44:06;;;;;;;1.02;0.85;;;19.10;61.50;;;;;;4973090;28;20047;-15
2022/05/28 07:46:32;;;;;;;2.88;1.27;;;19.00;61.50;;;;;;4974285;28;20061;-13
2022/05/28 07:48:58;;;;;;;1.67;0.98;;;19.10;61.60;;;;;;4974435;28;20526;-14
2022/05/28 07:51:24;;;;;;;9.85;1.63;;;19.10;62.00;;;;;;4972879;28;20062;-14
2022/05/28 07:53:50;;;;;;;1.00;0.77;;;19.20;61.40;;;;;;4972723;28;20046;-13
2022/05/28 07:56:15;;;;;;;1.45;0.70;;;19.20;61.60;;;;;;4974247;28;20054;-14
2022/05/28 07:58:41;;;;;;;2.20;1.17;;;19.10;61.90;;;;;;4977503;28;20047;-15
2022/05/28 08:01:07;;;;;;;2.03;0.95;;;19.10;61.90;;;;;;4966006;28;20050;-15
2022/05/28 08:03:33;;;;;;;1.00;0.73;;;19.20;61.50;;;;;;4974767;28;20045;-13
2022/05/28 08:05:59;;;;;;;2.45;0.98;;;19.30;61.60;;;;;;4973745;28;20043;-15
2022/05/28 08:08:25;;;;;;;1.83;1.20;;;19.30;61.60;;;;;;4974116;28;20053;-13
2022/05/28 08:10:51;;;;;;;2.00;0.90;;;19.30;61.40;;;;;;4968949;28;20058;-14
2022/05/28 08:13:19;;;;;;;2.58;1.00;;;19.30;61.60;;;;;;4970721;28;20047;-13
2022/05/28 08:15:45;;;;;;;2.42;1.17;;;19.40;61.40;;;;;;4976843;28;20051;-15
2022/05/28 08:18:12;;;;;;;2.22;1.10;;;19.40;61.30;;;;;;4973575;28;20053;-14
2022/05/28 08:23:22;;;;;;;2.58;1.00;;;19.50;61.10;;;;;;4971243;28;20089;-15
2022/05/28 08:25:49;;;;;;;2.03;1.33;;;19.50;61.20;;;;;;4971860;28;20086;-14
2022/05/28 08:28:15;;;;;;;1.55;0.90;;;19.60;61.10;;;;;;4973413;28;20039;-14
2022/05/28 08:30:41;;;;;;;1.83;0.98;;;19.60;61.00;;;;;;4972494;28;20689;-14
2022/05/28 08:33:08;;;;;;;2.05;1.08;;;19.50;60.90;;;;;;4972177;28;20401;-15
2022/05/28 08:35:34;;;;;;;0.98;0.52;;;19.50;60.90;;;;;;4968606;28;20054;-15
2022/05/28 08:38:16;;;;;;;2.35;1.10;;;19.60;60.70;;;;;;4968429;28;20058;-15
2022/05/28 08:40:59;;;;;;;1.92;0.85;;;19.70;60.50;;;;;;4974255;28;20057;-14
2022/05/28 08:43:30;;;;;;;1.30;1.05;;;19.70;60.40;;;;;;4971575;28;20585;-13
2022/05/28 08:45:55;;;;;;;2.20;1.13;;;19.80;60.00;;;;;;4974604;28;20776;-15
2022/05/28 08:48:26;;;;;;;1.98;0.85;;;19.80;60.20;;;;;;4973693;28;20129;-15
2022/05/28 08:51:00;;;;;;;1.20;0.77;;;19.80;60.10;;;;;;4972388;28;20105;-14
2022/05/28 08:53:31;;;;;;;1.25;1.15;;;19.80;60.00;;;;;;4956894;28;20059;-14
2022/05/28 08:55:57;;;;;;;1.40;1.08;;;19.90;60.00;;;;;;4971889;28;20073;-15
2022/05/28 08:58:24;;;;;;;1.48;1.02;;;19.90;59.80;;;;;;4972324;28;20054;-15
2022/05/28 09:01:08;;;;;;;1.50;0.98;;;19.90;60.00;;;;;;4972712;28;20046;-15
2022/05/28 09:03:50;;;;;;;1.98;1.00;;;19.90;59.80;;;;;;4957614;28;20086;-14
2022/05/28 09:06:40;;;;;;;0.80;0.63;;;20.00;59.80;;;;;;4971424;28;20053;-14
2022/05/28 09:09:08;;;;;;;1.50;0.90;;;20.00;59.80;;;;;;4973120;28;20039;-15
2022/05/28 09:11:36;;;;;;;1.20;0.93;;;20.00;59.80;;;;;;4969515;28;20051;-15
2022/05/28 09:14:28;;;;;;;1.00;0.82;;;20.00;59.70;;;;;;4973295;28;20041;-16
2022/05/28 09:16:55;;;;;;;1.23;0.90;;;20.10;59.60;;;;;;4973551;28;20070;-15
2022/05/28 09:19:27;;;;;;;1.45;1.27;;;20.10;59.60;;;;;;4972783;28;20055;-15
2022/05/28 09:21:53;;;;;;;1.02;0.80;;;20.10;59.50;;;;;;4971281;28;20043;-15
2022/05/28 09:24:29;;;;;;;1.00;1.00;;;20.20;59.60;;;;;;4972674;28;20059;-14
2022/05/28 09:27:14;;;;;;;2.05;1.00;;;20.10;59.50;;;;;;4973128;28;20059;-15
2022/05/28 09:29:57;;;;;;;1.75;0.90;;;20.20;59.40;;;;;;4971820;28;20051;-14
2022/05/28 09:32:42;;;;;;;1.48;1.05;;;20.10;59.40;;;;;;4972960;28;20064;-14
2022/05/28 09:35:09;;;;;;;1.65;1.02;;;20.20;59.40;;;;;;4970772;28;20507;-14
2022/05/28 09:37:56;;;;;;;0.90;0.80;;;20.30;59.30;;;;;;4970479;28;20054;-15
2022/05/28 09:40:52;;;;;;;2.20;0.88;;;20.20;59.20;;;;;;4971002;28;20046;-14
2022/05/28 09:43:33;;;;;;;1.52;1.17;;;20.30;59.30;;;;;;4971233;28;20047;-16
2022/05/28 09:46:06;;;;;;;0.88;0.80;;;20.30;59.30;;;;;;4970281;28;20039;-14
2022/05/28 09:48:32;;;;;;;1.38;1.13;;;20.20;59.10;;;;;;4972124;28;20557;-15
2022/05/28 09:50:57;;;;;;;0.95;0.82;;;20.30;59.10;;;;;;4972936;28;20042;-14
2022/05/28 09:56:37;;;;;;;1.00;0.80;;;20.40;60.00;;;;;;4970151;28;20054;-16
2022/05/28 09:59:32;;;;;;;1.48;1.13;;;20.40;59.60;;;;;;4626778;28;10000437;-15
2022/05/28 10:02:13;;;;;;;1.92;1.10;;;20.40;59.40;;;;;;4960352;28;20078;-15
2022/05/28 10:05:03;;;;;;;2.83;1.00;;;20.40;59.30;;;;;;4983511;28;20050;-15
2022/05/28 10:07:43;;;;;;;1.20;1.10;;;20.40;59.30;;;;;;4966876;28;20083;-16
2022/05/28 10:10:22;;;;;;;0.80;0.80;;;20.40;59.30;;;;;;4969595;28;20086;-15
2022/05/28 10:12:48;;;;;;;1.77;1.02;;;20.40;59.90;;;;;;4966160;28;20055;-14
2022/05/28 10:15:17;;;;;;;1.67;1.15;;;20.40;59.40;;;;;;4967092;28;20452;-17
2022/05/28 10:17:45;;;;;;;1.42;0.90;;;20.40;59.40;;;;;;4969926;28;20539;-14
2022/05/28 10:20:17;;;;;;;2.22;1.30;;;20.50;59.50;;;;;;4967743;28;20051;-15
2022/05/28 10:22:42;;;;;;;1.23;1.02;;;20.50;59.40;;;;;;4968315;28;20058;-14
2022/05/28 10:25:28;;;;;;;1.17;1.08;;;20.50;60.00;;;;;;4968168;28;20057;-17
2022/05/28 10:27:54;;;;;;;2.88;1.10;;;20.50;59.30;;;;;;4966053;28;20070;-15
2022/05/28 10:30:38;;;;;;;1.35;1.20;;;20.50;59.30;;;;;;4968899;28;20057;-15
2022/05/28 10:33:11;;;;;;;1.83;1.10;;;20.50;59.20;;;;;;4970995;28;20039;-15
2022/05/28 10:35:37;;;;;;;2.15;1.33;;;20.50;59.20;;;;;;4966527;28;20117;-15
2022/05/28 10:38:23;;;;;;;1.27;1.17;;;20.50;59.20;;;;;;4969258;28;20074;-15
2022/05/28 10:40:54;;;;;;;1.48;1.30;;;20.60;59.30;;;;;;4967805;28;20047;-16
2022/05/28 10:43:23;;;;;;;2.05;0.80;;;20.60;59.30;;;;;;4968751;28;20050;-15
2022/05/28 10:45:53;;;;;;;1.92;1.20;;;20.60;59.30;;;;;;4968730;28;20157;-17
2022/05/28 10:48:46;;;;;;;1.75;1.40;;;20.70;59.20;;;;;;4966691;28;20050;-16
2022/05/28 10:51:21;;;;;;;2.72;1.17;;;20.70;59.00;;;;;;4968079;28;20046;-15
2022/05/28 10:54:24;;;;;;;2.47;1.02;;;20.70;59.00;;;;;;4965937;28;20114;-15
2022/05/28 10:57:03;;;;;;;1.20;0.88;;;20.70;59.00;;;;;;4967694;28;20057;-15
2022/05/28 11:00:11;;;;;;;1.52;1.08;;;20.70;59.10;;;;;;4966518;28;20055;-16
2022/05/28 11:03:23;;;;;;;2.83;1.25;;;20.70;59.10;;;;;;4961130;28;20063;-15
2022/05/28 11:06:02;;;;;;;2.08;0.80;;;20.80;58.90;;;;;;4963989;28;20563;-16
2022/05/28 11:08:50;;;;;;;2.10;1.05;;;20.80;58.90;;;;;;4968822;28;20093;-15
2022/05/28 11:11:37;;;;;;;1.13;1.00;;;20.80;58.70;;;;;;4967968;28;20402;-15
2022/05/28 11:14:27;;;;;;;0.98;0.90;;;20.80;58.60;;;;;;4969280;28;20059;-16
2022/05/28 11:17:14;;;;;;;0.90;0.80;;;20.80;58.70;;;;;;4981059;28;20047;-16
2022/05/28 11:19:58;;;;;;;0.88;0.82;;;20.80;58.70;;;;;;4968069;28;20062;-16
2022/05/28 11:22:43;;;;;;;0.80;0.80;;;20.90;58.70;;;;;;4966560;28;20038;-16
2022/05/28 11:25:16;;;;;;;1.67;1.00;;;20.80;58.60;;;;;;4966348;28;20051;-15
2022/05/28 11:27:57;;;;;;;0.60;0.60;;;20.80;58.70;;;;;;4968020;28;20039;-16
2022/05/28 11:30:33;;;;;;;0.77;0.70;;;20.90;58.70;;;;;;4967564;28;20074;-16
2022/05/28 11:33:14;;;;;;;0.82;0.70;;;20.90;58.70;;;;;;4967248;28;20101;-16
2022/05/28 11:35:51;;;;;;;0.82;0.82;;;20.80;58.80;;;;;;4968264;28;20086;-15
2022/05/28 11:38:30;;;;;;;1.33;0.77;;;20.90;58.80;;;;;;4967681;28;20058;-16
2022/05/28 11:41:07;;;;;;;1.67;0.98;;;20.90;58.60;;;;;;4967333;28;20148;-15
2022/05/28 11:43:41;;;;;;;1.08;0.93;;;20.90;58.60;;;;;;4966773;28;20057;-15
2022/05/28 11:46:26;;;;;;;2.97;0.82;;;20.90;58.60;;;;;;4966480;28;20050;-15
2022/05/28 11:51:55;;;;;;;1.55;0.95;;;21.00;58.60;;;;;;4950540;28;20058;-15
2022/05/28 11:54:36;;;;;;;1.27;0.63;;;21.00;58.60;;;;;;4967906;28;20043;-16
2022/05/28 11:57:12;;;;;;;0.82;0.60;;;21.00;58.40;;;;;;4950370;28;20054;-15
2022/05/28 11:59:38;;;;;;;0.90;0.80;;;21.00;59.10;;;;;;4971561;28;20106;-16
2022/05/28 12:02:11;;;;;;;1.40;1.05;;;21.00;58.60;;;;;;4971226;28;20477;-16
2022/05/28 12:04:43;;;;;;;2.55;0.80;;;21.00;58.40;;;;;;4952504;28;20129;-16
2022/05/28 12:07:11;;;;;;;0.63;0.55;;;21.00;58.30;;;;;;4969441;28;20046;-16
2022/05/28 12:09:44;;;;;;;1.27;1.02;;;21.00;58.30;;;;;;4970167;28;20047;-15
2022/05/28 12:12:34;;;;;;;2.35;0.90;;;21.00;58.30;;;;;;4958479;28;20105;-15
2022/05/28 12:15:04;;;;;;;0.88;0.70;;;21.00;59.00;;;;;;4972372;28;20042;-16
2022/05/28 12:17:30;;;;;;;1.25;0.80;;;21.00;58.10;;;;;;4974836;28;20058;-16
2022/05/28 12:19:58;;;;;;;0.70;0.50;;;21.00;58.30;;;;;;4973423;28;20097;-16
2022/05/28 12:22:24;;;;;;;1.45;0.90;;;21.00;58.20;;;;;;4973322;28;20054;-16
2022/05/28 12:25:05;;;;;;;1.63;1.02;;;21.00;58.30;;;;;;4972573;28;20050;-16
2022/05/28 12:27:48;;;;;;;0.95;0.85;;;21.00;58.20;;;;;;4973080;28;20039;-16
2022/05/28 12:30:37;;;;;;;1.13;0.90;;;21.00;58.10;;;;;;4973375;28;20043;-16
2022/05/28 12:33:03;;;;;;;0.60;0.50;;;21.10;58.00;;;;;;4974028;28;20061;-15
2022/05/28 12:35:35;;;;;;;1.42;0.88;;;21.10;57.90;;;;;;4973361;28;20050;-15
2022/05/28 12:38:08;;;;;;;1.42;0.80;;;21.10;57.90;;;;;;4973890;28;20043;-15
2022/05/28 12:40:46;;;;;;;1.05;0.70;;;21.10;58.20;;;;;;4970936;28;20078;-15
2022/05/28 12:43:17;;;;;;;1.05;0.85;;;21.10;57.90;;;;;;4973904;28;20045;-15
2022/05/28 12:45:47;;;;;;;0.95;0.80;;;21.20;57.70;;;;;;4970150;28;20046;-16
2022/05/28 12:48:14;;;;;;;1.10;0.80;;;21.20;57.70;;;;;;4973543;28;20049;-15
2022/05/28 12:51:05;;;;;;;1.05;0.85;;;21.20;57.40;;;;;;4973831;28;20038;-15
2022/05/28 12:53:35;;;;;;;0.70;0.70;;;21.20;57.40;;;;;;4952956;28;20082;-16
2022/05/28 12:56:07;;;;;;;0.57;0.55;;;21.30;57.50;;;;;;4971932;28;20042;-16
2022/05/28 12:58:33;;;;;;;1.30;0.45;;;21.20;57.60;;;;;;4971389;28;20128;-15
2022/05/28 13:01:02;;;;;;;1.30;0.73;;;21.20;57.70;;;;;;4974654;28;20043;-16
2022/05/28 13:03:41;;;;;;;1.83;0.82;;;21.20;57.70;;;;;;4971589;28;20500;-16
2022/05/28 13:06:47;;;;;;;0.50;0.50;;;21.20;57.80;;;;;;4972081;28;20523;-14
2022/05/28 13:09:12;;;;;;;1.00;0.70;;;21.20;57.80;;;;;;4968595;28;20069;-16
2022/05/28 13:11:48;;;;;;;1.55;0.77;;;21.20;57.70;;;;;;4971143;28;20075;-15
2022/05/28 13:14:32;;;;;;;1.00;0.63;;;21.20;57.80;;;;;;4972485;28;21267;-16